Time,TemperatureF,DewpointF,PressureIn,WindDirection,WindDirectionDegrees,WindSpeedMPH,WindSpeedGustMPH,Humidity,HourlyPrecipIn,Conditions,Clouds,dailyrainin,SoftwareType,DateUTC
2013-08-30 00:10:00,61.3,48.0,30.19,NW,310,0.0,-999.0,62,-99.99,,,0.00,weatherlink.com 1.10,2013-08-30 06:10:00,
2013-08-30 00:25:00,61.6,50.0,30.17,NW,310,0.0,-999.0,66,-99.99,,,0.00,weatherlink.com 1.10,2013-08-30 06:25:00,
2013-08-30 00:41:00,60.9,50.0,30.16,NW,310,0.0,-999.0,68,-99.99,,,0.00,weatherlink.com 1.10,2013-08-30 06:41:00,
2013-08-30 00:56:00,60.1,49.0,30.16,NW,310,0.0,-999.0,68,-99.99,,,0.00,weatherlink.com 1.10,2013-08-30 06:56:00,
2013-08-30 01:10:00,59.6,50.0,30.17,NW,310,0.0,-999.0,70,-99.99,,,0.00,weatherlink.com 1.10,2013-08-30 07:10:00,
2013-08-30 01:25:00,60.4,49.0,30.18,NW,310,0.0,-999.0,67,-99.99,,,0.00,weatherlink.com 1.10,2013-08-30 07:25:00,
2013-08-30 01:40:00,60.7,49.0,30.18,NW,310,1.0,-999.0,65,-99.99,,,0.00,weatherlink.com 1.10,2013-08-30 07:40:00,
2013-08-30 02:10:00,61.2,48.0,30.17,NW,310,0.0,-999.0,63,-99.99,,,0.00,weatherlink.com 1.10,2013-08-30 08:10:00,
2013-08-30 02:25:00,61.5,50.0,30.14,NW,310,0.0,-999.0,65,-99.99,,,0.00,weatherlink.com 1.10,2013-08-30 08:25:00,
2013-08-30 02:40:00,61.2,49.0,30.13,NW,310,0.0,-999.0,65,-99.99,,,0.00,weatherlink.com 1.10,2013-08-30 08:40:00,
2013-08-30 02:55:00,60.9,48.0,30.13,NW,310,0.0,-999.0,63,-99.99,,,0.00,weatherlink.com 1.10,2013-08-30 08:55:00,
2013-08-30 03:10:00,60.2,49.0,30.13,NW,310,0.0,-999.0,66,-99.99,,,0.00,weatherlink.com 1.10,2013-08-30 09:10:00,
2013-08-30 03:26:00,60.2,48.0,30.11,NW,310,0.0,-999.0,65,-99.99,,,0.00,weatherlink.com 1.10,2013-08-30 09:26:00,
2013-08-30 03:41:00,59.9,48.0,30.11,NW,310,0.0,-999.0,65,-99.99,,,0.00,weatherlink.com 1.10,2013-08-30 09:41:00,
2013-08-30 03:56:00,59.8,48.0,30.11,NW,310,0.0,-999.0,66,-99.99,,,0.00,weatherlink.com 1.10,2013-08-30 09:56:00,
2013-08-30 04:10:00,59.5,48.0,30.11,NW,310,0.0,-999.0,65,-99.99,,,0.00,weatherlink.com 1.10,2013-08-30 10:10:00,
2013-08-30 04:25:00,60.5,47.0,30.11,NW,310,0.0,-999.0,62,-99.99,,,0.00,weatherlink.com 1.10,2013-08-30 10:25:00,
2013-08-30 04:40:00,59.8,48.0,30.10,NW,310,0.0,-999.0,66,-99.99,,,0.00,weatherlink.com 1.10,2013-08-30 10:40:00,
2013-08-30 05:10:00,58.6,48.0,30.12,NW,310,0.0,-999.0,67,-99.99,,,0.00,weatherlink.com 1.10,2013-08-30 11:10:00,
2013-08-30 05:26:00,58.3,48.0,30.16,NW,310,0.0,-999.0,68,-99.99,,,0.00,weatherlink.com 1.10,2013-08-30 11:26:00,
2013-08-30 05:41:00,57.8,47.0,30.16,NW,310,0.0,-999.0,68,-99.99,,,0.00,weatherlink.com 1.10,2013-08-30 11:41:00,
2013-08-30 05:56:00,58.0,47.0,30.16,NW,310,0.0,-999.0,67,-99.99,,,0.00,weatherlink.com 1.10,2013-08-30 11:56:00,
2013-08-30 06:11:00,58.4,48.0,30.17,NW,310,0.0,-999.0,69,-99.99,,,0.00,weatherlink.com 1.10,2013-08-30 12:11:00,
2013-08-30 06:26:00,58.1,47.0,30.25,NW,310,0.0,-999.0,67,-99.99,,,0.00,weatherlink.com 1.10,2013-08-30 12:26:00,
2013-08-30 06:41:00,58.3,47.0,30.26,NW,310,0.0,-999.0,67,-99.99,,,0.00,weatherlink.com 1.10,2013-08-30 12:41:00,
2013-08-30 06:56:00,58.0,47.0,30.25,NW,310,0.0,-999.0,68,-99.99,,,0.00,weatherlink.com 1.10,2013-08-30 12:56:00,
2013-08-30 07:11:00,58.3,47.0,30.26,NW,310,0.0,-999.0,67,-99.99,,,0.00,weatherlink.com 1.10,2013-08-30 13:11:00,
2013-08-30 07:25:00,58.4,47.0,30.28,NW,310,0.0,-999.0,67,-99.99,,,0.00,weatherlink.com 1.10,2013-08-30 13:25:00,
2013-08-30 07:40:00,60.7,48.0,30.27,NW,310,0.0,-999.0,64,-99.99,,,0.00,weatherlink.com 1.10,2013-08-30 13:40:00,
2013-08-30 07:55:00,64.2,48.0,30.25,NW,310,0.0,-999.0,57,-99.99,,,0.00,weatherlink.com 1.10,2013-08-30 13:55:00,
2013-08-30 08:10:00,65.3,51.0,30.24,NW,310,0.0,-999.0,61,-99.99,,,0.00,weatherlink.com 1.10,2013-08-30 14:10:00,
2013-08-30 08:26:00,67.3,50.0,30.21,NW,310,0.0,-999.0,55,-99.99,,,0.00,weatherlink.com 1.10,2013-08-30 14:26:00,
2013-08-30 08:40:00,68.8,50.0,30.22,NW,310,0.0,-999.0,51,-99.99,,,0.00,weatherlink.com 1.10,2013-08-30 14:40:00,
2013-08-30 09:11:00,70.1,50.0,30.20,East,101,1.0,-999.0,49,-99.99,,,0.00,weatherlink.com 1.10,2013-08-30 15:11:00,
2013-08-30 09:26:00,71.1,52.0,30.18,ESE,103,2.0,-999.0,51,-99.99,,,0.00,weatherlink.com 1.10,2013-08-30 15:26:00,
2013-08-30 09:41:00,71.8,53.0,30.18,ESE,103,0.0,-999.0,51,-99.99,,,0.00,weatherlink.com 1.10,2013-08-30 15:41:00,
2013-08-30 09:55:00,73.5,51.0,30.16,ESE,103,0.0,-999.0,45,-99.99,,,0.00,weatherlink.com 1.10,2013-08-30 15:55:00,
2013-08-30 10:10:00,75.1,50.0,30.15,ESE,103,1.0,-999.0,41,-99.99,,,0.00,weatherlink.com 1.10,2013-08-30 16:10:00,
2013-08-30 10:25:00,76.0,50.0,30.15,SSE,151,1.0,-999.0,40,-99.99,,,0.00,weatherlink.com 1.10,2013-08-30 16:25:00,
2013-08-30 10:40:00,75.1,50.0,30.14,SSE,156,5.0,-999.0,41,-99.99,,,0.00,weatherlink.com 1.10,2013-08-30 16:40:00,
2013-08-30 10:55:00,76.1,50.0,30.15,SSE,156,1.0,-999.0,40,-99.99,,,0.00,weatherlink.com 1.10,2013-08-30 16:55:00,
2013-08-30 11:10:00,77.9,52.0,30.13,ESE,105,2.0,-999.0,40,-99.99,,,0.00,weatherlink.com 1.10,2013-08-30 17:10:00,
2013-08-30 11:25:00,77.4,50.0,30.14,South,176,5.0,-999.0,39,-99.99,,,0.00,weatherlink.com 1.10,2013-08-30 17:25:00,
2013-08-30 11:40:00,78.6,50.0,30.14,West,261,2.0,-999.0,37,-99.99,,,0.00,weatherlink.com 1.10,2013-08-30 17:40:00,
2013-08-30 11:55:00,79.2,48.0,30.12,SW,217,2.0,-999.0,34,-99.99,,,0.00,weatherlink.com 1.10,2013-08-30 17:55:00,
2013-08-30 12:11:00,78.6,48.0,30.11,SSE,166,1.0,-999.0,34,-99.99,,,0.00,weatherlink.com 1.10,2013-08-30 18:11:00,
2013-08-30 12:26:00,80.1,48.0,30.14,SSE,165,16.0,-999.0,32,-99.99,,,0.00,weatherlink.com 1.10,2013-08-30 18:26:00,
2013-08-30 12:40:00,79.8,47.0,30.12,West,263,6.0,-999.0,32,-99.99,,,0.00,weatherlink.com 1.10,2013-08-30 18:40:00,
2013-08-30 12:55:00,79.9,49.0,30.12,ESE,114,2.0,-999.0,34,-99.99,,,0.00,weatherlink.com 1.10,2013-08-30 18:55:00,
2013-08-30 13:10:00,80.9,45.0,30.11,SSW,210,4.0,-999.0,28,-99.99,,,0.00,weatherlink.com 1.10,2013-08-30 19:10:00,
2013-08-30 13:25:00,82.8,46.0,30.10,South,176,7.0,-999.0,27,-99.99,,,0.00,weatherlink.com 1.10,2013-08-30 19:25:00,
2013-08-30 13:40:00,80.9,45.0,30.07,WSW,258,1.0,-999.0,28,-99.99,,,0.00,weatherlink.com 1.10,2013-08-30 19:40:00,
2013-08-30 13:55:00,83.2,45.0,30.08,South,179,4.0,-999.0,26,-99.99,,,0.00,weatherlink.com 1.10,2013-08-30 19:55:00,
2013-08-30 14:10:00,82.2,46.0,30.06,NE,46,1.0,-999.0,28,-99.99,,,0.00,weatherlink.com 1.10,2013-08-30 20:10:00,
2013-08-30 14:25:00,84.7,44.0,30.07,SE,142,7.0,-999.0,24,-99.99,,,0.00,weatherlink.com 1.10,2013-08-30 20:25:00,
2013-08-30 14:40:00,83.6,42.0,30.05,East,83,5.0,-999.0,23,-99.99,,,0.00,weatherlink.com 1.10,2013-08-30 20:40:00,
2013-08-30 14:55:00,83.4,41.0,30.04,SE,143,3.0,-999.0,22,-99.99,,,0.00,weatherlink.com 1.10,2013-08-30 20:55:00,
2013-08-30 15:10:00,84.3,43.0,30.04,SSW,194,3.0,-999.0,23,-99.99,,,0.00,weatherlink.com 1.10,2013-08-30 21:10:00,
2013-08-30 15:26:00,84.1,42.0,30.02,South,187,0.0,-999.0,23,-99.99,,,0.00,weatherlink.com 1.10,2013-08-30 21:26:00,
2013-08-30 15:41:00,84.5,43.0,30.02,West,263,2.0,-999.0,23,-99.99,,,0.00,weatherlink.com 1.10,2013-08-30 21:41:00,
2013-08-30 15:56:00,84.1,40.0,30.02,WSW,241,10.0,-999.0,21,-99.99,,,0.00,weatherlink.com 1.10,2013-08-30 21:56:00,
2013-08-30 16:11:00,84.3,41.0,30.02,SW,231,0.0,-999.0,22,-99.99,,,0.00,weatherlink.com 1.10,2013-08-30 22:11:00,
2013-08-30 16:26:00,84.9,40.0,30.02,SSW,193,5.0,-999.0,20,-99.99,,,0.00,weatherlink.com 1.10,2013-08-30 22:26:00,
2013-08-30 16:41:00,80.7,41.0,30.03,SW,235,2.0,-999.0,24,-99.99,,,0.00,weatherlink.com 1.10,2013-08-30 22:41:00,
2013-08-30 16:55:00,80.5,43.0,30.03,WSW,245,7.0,-999.0,26,-99.99,,,0.00,weatherlink.com 1.10,2013-08-30 22:55:00,
2013-08-30 17:10:00,79.2,43.0,30.05,WSW,255,1.0,-999.0,28,-99.99,,,0.00,weatherlink.com 1.10,2013-08-30 23:10:00,
2013-08-30 17:25:00,78.6,44.0,30.06,WSW,254,0.0,-999.0,29,-99.99,,,0.00,weatherlink.com 1.10,2013-08-30 23:25:00,
2013-08-30 17:40:00,78.3,45.0,30.06,West,266,1.0,-999.0,31,-99.99,,,0.00,weatherlink.com 1.10,2013-08-30 23:40:00,
2013-08-30 17:55:00,77.9,46.0,30.07,NE,40,5.0,-999.0,32,-99.99,,,0.00,weatherlink.com 1.10,2013-08-30 23:55:00,
2013-08-30 18:25:00,76.8,49.0,30.08,NE,42,0.0,-999.0,38,-99.99,,,0.00,weatherlink.com 1.10,2013-08-31 00:25:00,
2013-08-30 18:40:00,76.1,50.0,30.07,NNW,327,0.0,-999.0,40,-99.99,,,0.00,weatherlink.com 1.10,2013-08-31 00:40:00,
2013-08-30 18:55:00,75.4,50.0,30.07,SW,227,0.0,-999.0,41,-99.99,,,0.00,weatherlink.com 1.10,2013-08-31 00:55:00,
2013-08-30 19:10:00,74.7,49.0,30.09,SW,228,0.0,-999.0,41,-99.99,,,0.00,weatherlink.com 1.10,2013-08-31 01:10:00,
2013-08-30 19:25:00,74.0,49.0,30.04,WNW,295,0.0,-999.0,42,-99.99,,,0.00,weatherlink.com 1.10,2013-08-31 01:25:00,
2013-08-30 19:40:00,73.2,49.0,30.04,WNW,295,0.0,-999.0,43,-99.99,,,0.00,weatherlink.com 1.10,2013-08-31 01:40:00,
2013-08-30 19:55:00,72.7,48.0,30.08,SSE,162,1.0,-999.0,41,-99.99,,,0.00,weatherlink.com 1.10,2013-08-31 01:55:00,
2013-08-30 20:10:00,73.2,47.0,30.09,WSW,249,1.0,-999.0,39,-99.99,,,0.00,weatherlink.com 1.10,2013-08-31 02:10:00,
2013-08-30 20:25:00,72.5,47.0,30.04,NNE,15,0.0,-999.0,40,-99.99,,,0.00,weatherlink.com 1.10,2013-08-31 02:25:00,
2013-08-30 20:40:00,71.5,46.0,30.06,NNE,15,2.0,-999.0,41,-99.99,,,0.00,weatherlink.com 1.10,2013-08-31 02:40:00,
2013-08-30 21:10:00,71.1,45.0,30.06,ENE,73,0.0,-999.0,40,-99.99,,,0.00,weatherlink.com 1.10,2013-08-31 03:10:00,
2013-08-30 21:25:00,69.4,45.0,30.02,ENE,73,0.0,-999.0,41,-99.99,,,0.00,weatherlink.com 1.10,2013-08-31 03:25:00,
2013-08-30 21:40:00,68.9,44.0,30.04,ENE,73,0.0,-999.0,41,-99.99,,,0.00,weatherlink.com 1.10,2013-08-31 03:40:00,
2013-08-30 21:56:00,68.4,44.0,30.05,ENE,73,0.0,-999.0,42,-99.99,,,0.00,weatherlink.com 1.10,2013-08-31 03:56:00,
2013-08-30 22:10:00,67.6,44.0,30.05,ENE,73,0.0,-999.0,43,-99.99,,,0.00,weatherlink.com 1.10,2013-08-31 04:10:00,
2013-08-30 22:25:00,68.4,42.0,30.04,ENE,73,0.0,-999.0,39,-99.99,,,0.00,weatherlink.com 1.10,2013-08-31 04:25:00,
2013-08-30 22:40:00,67.1,44.0,30.04,ENE,73,0.0,-999.0,43,-99.99,,,0.00,weatherlink.com 1.10,2013-08-31 04:40:00,
2013-08-30 22:55:00,66.3,45.0,30.03,ENE,73,0.0,-999.0,47,-99.99,,,0.00,weatherlink.com 1.10,2013-08-31 04:55:00,
2013-08-30 23:10:00,66.6,44.0,30.05,SW,220,5.0,-999.0,45,-99.99,,,0.00,weatherlink.com 1.10,2013-08-31 05:10:00,
2013-08-30 23:25:00,67.1,47.0,30.04,SW,221,0.0,-999.0,49,-99.99,,,0.00,weatherlink.com 1.10,2013-08-31 05:25:00,
2013-08-30 23:40:00,66.9,48.0,30.04,SW,221,0.0,-999.0,50,-99.99,,,0.00,weatherlink.com 1.10,2013-08-31 05:40:00,
2013-08-30 23:55:00,66.4,48.0,30.05,SW,221,0.0,-999.0,51,-99.99,,,0.00,weatherlink.com 1.10,2013-08-31 05:55:00,